createdAt,value
2023-02-11T00:02:40.277Z,-5.40
2023-02-11T00:05:24.294Z,-5.35
2023-02-11T00:08:08.465Z,-5.06
2023-02-11T00:10:55.185Z,-5.18
2023-02-11T00:13:39.022Z,-5.29
2023-02-11T00:16:23.035Z,-5.43
2023-02-11T00:19:07.487Z,-5.33
2023-02-11T00:21:51.241Z,-5.81
2023-02-11T00:24:35.045Z,-5.79
2023-02-11T00:27:20.564Z,-6.02
2023-02-11T00:30:05.425Z,-6.12
2023-02-11T00:32:49.295Z,-6.27
2023-02-11T00:35:33.341Z,-6.04
2023-02-11T00:38:17.369Z,-6.08
2023-02-11T00:41:01.291Z,-5.75
2023-02-11T00:43:47.111Z,-5.87
2023-02-11T00:46:31.104Z,-6.02
2023-02-11T00:49:15.425Z,-5.98
2023-02-11T00:51:59.920Z,-5.85
2023-02-11T00:54:44.002Z,-5.80
2023-02-11T00:57:28.004Z,-5.75
2023-02-11T01:00:15.698Z,-5.64
2023-02-11T01:02:59.523Z,-5.58
2023-02-11T01:05:43.240Z,-5.58
2023-02-11T01:08:27.514Z,-5.85
2023-02-11T01:11:15.610Z,-5.79
2023-02-11T01:14:02.100Z,-5.65
2023-02-11T01:16:47.248Z,-5.82
2023-02-11T01:19:31.377Z,-5.88
2023-02-11T01:22:15.245Z,-5.68
2023-02-11T01:24:59.083Z,-5.67
2023-02-11T01:27:42.960Z,-5.83
2023-02-11T01:30:26.851Z,-5.78
2023-02-11T01:33:12.209Z,-5.70
2023-02-11T01:35:55.989Z,-5.87
2023-02-11T01:38:41.320Z,-6.33
2023-02-11T01:41:25.294Z,-6.01
2023-02-11T01:44:27.330Z,-6.09
2023-02-11T01:47:11.347Z,-6.12
2023-02-11T01:50:00.495Z,-5.92
2023-02-11T01:52:48.136Z,-5.93
2023-02-11T01:55:50.628Z,-6.25
2023-02-11T01:58:39.434Z,-6.17
2023-02-11T02:01:26.905Z,-6.12
2023-02-11T02:04:12.542Z,-6.04
2023-02-11T02:07:03.774Z,-6.15
2023-02-11T02:09:53.891Z,-6.92
2023-02-11T02:12:37.669Z,-6.52
2023-02-11T02:15:27.661Z,-6.27
2023-02-11T02:18:31.843Z,-6.40
2023-02-11T02:21:36.954Z,-6.13
2023-02-11T02:24:39.878Z,-6.52
2023-02-11T02:27:43.488Z,-6.60
2023-02-11T02:30:58.052Z,-6.72
2023-02-11T02:33:55.587Z,-6.85
2023-02-11T02:36:49.406Z,-6.41
2023-02-11T02:39:36.952Z,-6.61
2023-02-11T02:42:22.600Z,-6.28
2023-02-11T02:45:08.355Z,-6.31
2023-02-11T02:47:53.849Z,-6.38
2023-02-11T02:50:39.488Z,-6.50
2023-02-11T02:53:33.335Z,-6.71
2023-02-11T02:56:27.212Z,-6.40
2023-02-11T02:59:36.381Z,-6.44
2023-02-11T03:02:28.060Z,-6.62
2023-02-11T03:05:18.999Z,-6.56
2023-02-11T03:08:09.332Z,-6.46
2023-02-11T03:10:55.674Z,-6.33
2023-02-11T03:13:41.144Z,-6.53
2023-02-11T03:16:29.436Z,-6.55
2023-02-11T03:19:17.167Z,-6.59
2023-02-11T03:22:03.843Z,-6.58
2023-02-11T03:24:49.967Z,-6.83
2023-02-11T03:27:40.827Z,-6.65
2023-02-11T03:30:29.822Z,-6.40
2023-02-11T03:33:19.031Z,-6.78
2023-02-11T03:36:08.117Z,-6.38
2023-02-11T03:38:57.541Z,-6.55
2023-02-11T03:41:44.703Z,-6.81
2023-02-11T03:44:32.753Z,-6.88
2023-02-11T03:47:21.422Z,-6.78
2023-02-11T03:50:07.609Z,-6.32
2023-02-11T03:52:52.282Z,-6.84
2023-02-11T03:55:41.093Z,-6.76
2023-02-11T03:58:26.623Z,-6.82
2023-02-11T04:01:10.967Z,-6.87
2023-02-11T04:03:54.992Z,-6.67
2023-02-11T04:06:39.000Z,-6.53
2023-02-11T04:09:22.843Z,-6.91
2023-02-11T04:12:06.911Z,-6.80
2023-02-11T04:14:52.191Z,-6.94
2023-02-11T04:17:36.074Z,-6.86
2023-02-11T04:20:20.088Z,-6.74
2023-02-11T04:23:04.030Z,-6.67
2023-02-11T04:25:47.997Z,-6.72
2023-02-11T04:28:32.245Z,-6.98
2023-02-11T04:31:17.594Z,-6.72
2023-02-11T04:34:01.585Z,-6.55
2023-02-11T04:36:45.448Z,-6.79
2023-02-11T04:39:29.270Z,-6.57
2023-02-11T04:42:13.037Z,-7.02
2023-02-11T04:44:56.927Z,-6.96
2023-02-11T04:47:42.556Z,-6.90
2023-02-11T04:50:26.560Z,-6.82
2023-02-11T04:53:10.370Z,-6.86
2023-02-11T04:55:54.183Z,-6.86
2023-02-11T04:58:38.115Z,-6.78
2023-02-11T05:01:21.907Z,-6.82
2023-02-11T05:04:07.442Z,-6.75
2023-02-11T05:06:51.508Z,-6.79
2023-02-11T05:09:35.355Z,-6.98
2023-02-11T05:12:19.175Z,-6.69
2023-02-11T05:15:03.030Z,-6.68
2023-02-11T05:17:48.388Z,-6.48
2023-02-11T05:20:33.596Z,-7.04
2023-02-11T05:23:17.374Z,-7.08
2023-02-11T05:26:01.184Z,-7.08
2023-02-11T05:28:46.249Z,-7.00
2023-02-11T05:31:30.211Z,-6.86
2023-02-11T05:34:14.081Z,-6.96
2023-02-11T05:36:59.382Z,-6.76
2023-02-11T05:39:43.263Z,-6.74
2023-02-11T05:42:26.987Z,-6.50
2023-02-11T05:45:11.214Z,-6.74
2023-02-11T05:47:54.911Z,-6.42
2023-02-11T05:50:38.897Z,-6.41
2023-02-11T05:53:24.017Z,-6.06
2023-02-11T05:56:08.390Z,-6.33
2023-02-11T05:58:52.365Z,-6.22
2023-02-11T06:01:36.259Z,-6.26
2023-02-11T06:04:20.246Z,-6.42
2023-02-11T06:07:04.710Z,-5.87
2023-02-11T06:09:49.959Z,-5.98
2023-02-11T06:12:33.863Z,-5.84
2023-02-11T06:15:17.830Z,-5.69
2023-02-11T06:18:01.724Z,-5.28
2023-02-11T06:20:45.418Z,-4.95
2023-02-11T06:23:30.550Z,-4.84
2023-02-11T06:26:20.422Z,-4.97
2023-02-11T06:29:04.339Z,-4.79
2023-02-11T06:31:48.243Z,-4.54
2023-02-11T06:34:32.160Z,-4.66
2023-02-11T06:37:16.067Z,-4.37
2023-02-11T06:39:59.793Z,-4.16
2023-02-11T06:42:44.960Z,-4.04
2023-02-11T06:45:28.695Z,-3.92
2023-02-11T06:48:12.762Z,-3.81
2023-02-11T06:50:56.571Z,-3.81
2023-02-11T06:53:42.580Z,-3.68
2023-02-11T06:56:27.542Z,-4.61
2023-02-11T06:59:16.630Z,-3.84
2023-02-11T07:02:00.563Z,-3.74
2023-02-11T07:04:44.575Z,-3.73
2023-02-11T07:07:30.050Z,-3.69
2023-02-11T07:10:15.112Z,-3.66
2023-02-11T07:12:58.974Z,-3.31
2023-02-11T07:15:44.356Z,-3.15
2023-02-11T07:18:28.305Z,-3.07
2023-02-11T07:21:14.840Z,-3.51
2023-02-11T07:23:59.001Z,-3.33
2023-02-11T07:26:42.982Z,-3.08
2023-02-11T07:29:26.980Z,-3.01
2023-02-11T07:32:12.457Z,-2.73
2023-02-11T07:34:56.705Z,-2.49
2023-02-11T07:37:41.692Z,-2.66
2023-02-11T07:40:25.746Z,-2.49
2023-02-11T07:43:09.719Z,-2.78
2023-02-11T07:45:53.774Z,-2.53
2023-02-11T07:48:40.074Z,-1.97
2023-02-11T07:51:26.777Z,-2.05
2023-02-11T07:54:12.885Z,-1.86
2023-02-11T07:56:56.939Z,-2.52
2023-02-11T07:59:41.037Z,-2.23
2023-02-11T08:02:25.076Z,-1.85
2023-02-11T08:05:11.168Z,-1.45
2023-02-11T08:07:56.121Z,-1.62
2023-02-11T08:10:40.348Z,-1.53
2023-02-11T08:13:24.543Z,-1.15
2023-02-11T08:16:13.261Z,-0.99
2023-02-11T08:18:59.253Z,-0.69
2023-02-11T08:21:46.076Z,-0.71
2023-02-11T08:24:30.062Z,-0.34
2023-02-11T08:27:14.091Z,-0.41
2023-02-11T08:30:00.085Z,-0.03
2023-02-11T08:32:44.516Z,0.06
2023-02-11T08:35:28.977Z,0.07
2023-02-11T08:38:14.362Z,0.11
2023-02-11T08:41:01.062Z,0.13
2023-02-11T08:43:47.523Z,0.03
2023-02-11T08:46:32.031Z,-0.16
2023-02-11T08:49:16.374Z,0.33
2023-02-11T08:52:04.030Z,0.15
2023-02-11T08:54:49.583Z,0.17
2023-02-11T08:57:33.584Z,0.00
2023-02-11T09:00:18.814Z,0.38
2023-02-11T09:03:02.718Z,0.56
2023-02-11T09:05:49.826Z,0.52
2023-02-11T09:08:36.341Z,0.40
2023-02-11T09:11:23.700Z,0.69
2023-02-11T09:14:07.786Z,1.02
2023-02-11T09:16:52.180Z,0.97
2023-02-11T09:19:36.032Z,1.09
2023-02-11T09:22:20.000Z,1.06
2023-02-11T09:25:03.935Z,1.28
2023-02-11T09:27:49.927Z,1.44
2023-02-11T09:30:33.935Z,1.16
2023-02-11T09:33:17.798Z,1.14
2023-02-11T09:36:02.493Z,1.41
2023-02-11T09:38:47.242Z,1.65
2023-02-11T09:42:18.568Z,1.45
2023-02-11T09:45:06.023Z,1.43
2023-02-11T09:47:55.370Z,1.28
2023-02-11T09:50:43.749Z,1.45
2023-02-11T09:53:29.623Z,1.56
2023-02-11T09:56:15.413Z,1.61
2023-02-11T09:58:59.476Z,1.96
2023-02-11T10:01:50.018Z,1.82
2023-02-11T10:04:49.247Z,2.00
2023-02-11T10:07:38.661Z,1.75
2023-02-11T10:10:40.292Z,1.76
2023-02-11T10:13:37.120Z,1.67
2023-02-11T10:16:32.509Z,1.81
2023-02-11T10:19:30.721Z,1.79
2023-02-11T10:22:21.217Z,2.12
2023-02-11T10:25:19.107Z,2.17
2023-02-11T10:28:11.934Z,2.12
2023-02-11T10:31:01.052Z,2.34
2023-02-11T10:33:48.854Z,2.53
2023-02-11T10:36:36.404Z,2.83
2023-02-11T10:39:21.877Z,2.76
2023-02-11T10:42:09.899Z,3.09
2023-02-11T10:45:00.580Z,2.87
2023-02-11T10:47:45.134Z,2.76
2023-02-11T10:50:30.709Z,2.95
2023-02-11T10:53:21.098Z,2.90
2023-02-11T10:56:07.502Z,3.06
2023-02-11T10:58:59.636Z,2.54
2023-02-11T11:01:46.784Z,2.99
2023-02-11T11:04:41.639Z,3.07
2023-02-11T11:07:28.402Z,3.15
2023-02-11T11:10:30.574Z,3.18
2023-02-11T11:13:30.389Z,3.70
2023-02-11T11:16:20.912Z,3.74
2023-02-11T11:19:23.474Z,3.47
2023-02-11T11:22:07.241Z,3.37
2023-02-11T11:24:54.490Z,3.44
2023-02-11T11:27:39.742Z,3.52
2023-02-11T11:30:26.989Z,3.45
2023-02-11T11:33:22.330Z,3.38
2023-02-11T11:36:08.971Z,3.40
2023-02-11T11:38:55.875Z,3.11
2023-02-11T11:41:51.245Z,4.14
2023-02-11T11:44:38.038Z,3.86
2023-02-11T11:47:28.209Z,3.92
2023-02-11T11:50:36.299Z,4.20
2023-02-11T11:53:24.709Z,4.23
2023-02-11T11:56:15.417Z,4.09
2023-02-11T11:59:03.745Z,4.20
2023-02-11T12:02:03.241Z,4.29
2023-02-11T12:05:02.626Z,4.34
2023-02-11T12:08:02.136Z,4.10
2023-02-11T12:10:58.839Z,4.24
2023-02-11T12:13:54.625Z,4.36
2023-02-11T12:16:52.093Z,3.82
2023-02-11T12:20:01.015Z,3.93
2023-02-11T12:22:54.733Z,4.24
2023-02-11T12:25:46.024Z,4.65
2023-02-11T12:28:41.510Z,4.29
2023-02-11T12:31:38.207Z,4.39
2023-02-11T12:34:47.049Z,4.66
2023-02-11T12:37:44.573Z,4.63
2023-02-11T12:40:35.172Z,4.43
2023-02-11T12:43:23.776Z,4.68
2023-02-11T12:46:36.200Z,4.54
2023-02-11T12:49:42.968Z,4.68
2023-02-11T12:52:51.657Z,4.48
2023-02-11T12:55:38.296Z,4.58
2023-02-11T12:58:35.536Z,4.65
2023-02-11T13:01:30.767Z,4.56
2023-02-11T13:04:22.300Z,4.64
2023-02-11T13:07:14.352Z,4.57
2023-02-11T13:10:07.707Z,4.53
2023-02-11T13:13:11.528Z,4.68
2023-02-11T13:16:02.366Z,4.99
2023-02-11T13:18:57.296Z,4.62
2023-02-11T13:22:10.744Z,4.77
2023-02-11T13:25:01.107Z,4.54
2023-02-11T13:27:58.411Z,4.56
2023-02-11T13:30:47.526Z,4.63
2023-02-11T13:33:39.651Z,4.81
2023-02-11T13:36:25.734Z,4.32
2023-02-11T13:39:21.910Z,4.78
2023-02-11T13:42:07.381Z,4.62
2023-02-11T13:44:51.675Z,4.72
2023-02-11T13:47:38.045Z,4.38
2023-02-11T13:50:25.258Z,4.63
2023-02-11T13:53:09.918Z,4.83
2023-02-11T13:56:06.244Z,4.72
2023-02-11T13:58:52.726Z,4.63
2023-02-11T14:02:20.693Z,4.88
2023-02-11T14:05:38.433Z,4.43
2023-02-11T14:08:42.043Z,4.31
2023-02-11T14:11:50.352Z,4.49
2023-02-11T14:14:36.187Z,4.24
2023-02-11T14:17:21.370Z,4.45
2023-02-11T14:20:26.449Z,4.47
2023-02-11T14:23:24.144Z,4.45
2023-02-11T14:26:31.176Z,4.43
2023-02-11T14:29:21.073Z,4.16
2023-02-11T14:32:14.358Z,4.21
2023-02-11T14:35:09.267Z,4.13
2023-02-11T14:38:03.118Z,4.08
2023-02-11T14:40:55.194Z,4.20
2023-02-11T14:43:42.493Z,4.20
2023-02-11T14:46:30.024Z,4.07
2023-02-11T14:49:25.447Z,4.00
2023-02-11T14:52:28.886Z,4.07
2023-02-11T14:55:25.382Z,3.61
2023-02-11T14:58:15.679Z,3.76
2023-02-11T15:01:01.483Z,4.05
2023-02-11T15:03:50.629Z,3.90
2023-02-11T15:06:39.285Z,3.90
2023-02-11T15:09:28.211Z,3.94
2023-02-11T15:12:20.403Z,3.53
2023-02-11T15:15:04.865Z,3.33
2023-02-11T15:17:49.619Z,3.56
2023-02-11T15:20:36.103Z,3.45
2023-02-11T15:23:25.696Z,2.95
2023-02-11T15:26:15.474Z,2.80
2023-02-11T15:28:59.870Z,2.56
2023-02-11T15:31:44.008Z,2.45
2023-02-11T15:34:28.408Z,2.21
2023-02-11T15:37:16.310Z,2.25
2023-02-11T15:40:12.396Z,2.45
2023-02-11T15:42:58.989Z,2.11
2023-02-11T15:45:45.408Z,2.07
2023-02-11T15:48:36.702Z,1.14
2023-02-11T15:51:23.239Z,0.81
2023-02-11T15:54:16.569Z,0.75
2023-02-11T15:57:08.686Z,1.28
2023-02-11T15:59:55.444Z,1.09
2023-02-11T16:02:45.275Z,0.92
2023-02-11T16:05:32.840Z,0.82
2023-02-11T16:08:24.573Z,0.52
2023-02-11T16:11:09.721Z,0.58
2023-02-11T16:13:55.118Z,0.68
2023-02-11T16:16:39.166Z,0.44
2023-02-11T16:19:25.718Z,0.83
2023-02-11T16:22:12.157Z,0.84
2023-02-11T16:24:59.606Z,0.99
2023-02-11T16:27:44.332Z,1.28
2023-02-11T16:30:37.629Z,0.85
2023-02-11T16:33:21.859Z,1.22
2023-02-11T16:36:13.620Z,1.19
2023-02-11T16:38:57.499Z,1.23
2023-02-11T16:41:41.842Z,1.25
2023-02-11T16:44:25.935Z,1.11
2023-02-11T16:47:20.679Z,1.10
2023-02-11T16:50:04.592Z,0.99
2023-02-11T16:52:48.457Z,1.14
2023-02-11T16:55:32.590Z,1.11
2023-02-11T16:58:16.988Z,1.01
2023-02-11T17:01:01.057Z,1.05
2023-02-11T17:03:46.494Z,0.82
2023-02-11T17:06:30.488Z,0.56
2023-02-11T17:09:19.142Z,0.48
2023-02-11T17:12:03.182Z,0.37
2023-02-11T17:14:47.163Z,0.66
2023-02-11T17:17:30.998Z,0.62
2023-02-11T17:20:17.463Z,0.90
2023-02-11T17:23:01.267Z,0.90
2023-02-11T17:25:45.225Z,0.82
2023-02-11T17:28:29.112Z,0.73
2023-02-11T17:31:13.097Z,0.45
2023-02-11T17:33:57.390Z,0.48
2023-02-11T17:36:42.595Z,0.26
2023-02-11T17:39:26.493Z,0.28
2023-02-11T17:42:11.742Z,0.33
2023-02-11T17:44:55.688Z,0.39
2023-02-11T17:47:39.730Z,0.07
2023-02-11T17:50:23.801Z,-0.38
2023-02-11T17:53:09.230Z,0.20
2023-02-11T17:55:53.363Z,0.21
2023-02-11T17:58:37.420Z,0.41
2023-02-11T18:01:21.629Z,0.09
2023-02-11T18:04:06.606Z,0.27
2023-02-11T18:06:53.630Z,0.50
2023-02-11T18:09:42.846Z,0.11
2023-02-11T18:12:26.847Z,-0.13
2023-02-11T18:15:11.450Z,0.30
2023-02-11T18:17:56.284Z,0.39
2023-02-11T18:20:42.893Z,-0.26
2023-02-11T18:23:27.105Z,-0.16
2023-02-11T18:26:14.630Z,-0.05
2023-02-11T18:29:00.717Z,-0.18
2023-02-11T18:31:44.776Z,-0.59
2023-02-11T18:34:28.879Z,-0.79
2023-02-11T18:37:14.154Z,-0.46
2023-02-11T18:39:58.196Z,-0.69
2023-02-11T18:42:44.126Z,-0.66
2023-02-11T18:45:29.274Z,-0.52
2023-02-11T18:48:13.859Z,-0.68
2023-02-11T18:50:57.923Z,-0.67
2023-02-11T18:53:42.314Z,-0.15
2023-02-11T18:56:27.908Z,-0.05
2023-02-11T18:59:13.810Z,-0.14
2023-02-11T19:01:58.142Z,-0.73
2023-02-11T19:04:42.185Z,-0.76
2023-02-11T19:07:26.399Z,-0.85
2023-02-11T19:10:10.652Z,-0.79
2023-02-11T19:12:56.411Z,-1.12
2023-02-11T19:15:44.585Z,-1.27
2023-02-11T19:18:28.608Z,-1.19
2023-02-11T19:21:14.110Z,-1.08
2023-02-11T19:23:58.512Z,-0.99
2023-02-11T19:26:43.526Z,-1.08
2023-02-11T19:29:28.234Z,-1.36
2023-02-11T19:32:13.573Z,-1.40
2023-02-11T19:34:57.638Z,-1.48
2023-02-11T19:37:41.646Z,-1.25
2023-02-11T19:40:25.707Z,-1.31
2023-02-11T19:43:09.742Z,-1.17
2023-02-11T19:45:56.402Z,-1.29
2023-02-11T19:48:42.028Z,-1.07
2023-02-11T19:51:26.193Z,-0.83
2023-02-11T19:54:10.227Z,-1.12
2023-02-11T19:56:54.440Z,-1.14
2023-02-11T19:59:38.394Z,-1.22
2023-02-11T20:02:22.643Z,-1.50
2023-02-11T20:05:08.670Z,-1.87
2023-02-11T20:07:52.811Z,-1.64
2023-02-11T20:10:36.810Z,-1.69
2023-02-11T20:13:20.857Z,-1.44
2023-02-11T20:16:09.023Z,-1.55
2023-02-11T20:18:53.716Z,-1.39
2023-02-11T20:21:39.698Z,-1.73
2023-02-11T20:24:24.520Z,-1.74
2023-02-11T20:27:10.563Z,-1.76
2023-02-11T20:29:54.617Z,-1.46
2023-02-11T20:32:39.119Z,-1.48
2023-02-11T20:35:23.098Z,-1.65
2023-02-11T20:38:08.688Z,-1.53
2023-02-11T20:40:53.140Z,-2.31
2023-02-11T20:43:38.027Z,-2.04
2023-02-11T20:46:24.341Z,-1.75
2023-02-11T20:49:08.874Z,-2.02
2023-02-11T20:51:54.084Z,-1.99
2023-02-11T20:54:39.874Z,-1.71
2023-02-11T20:57:23.912Z,-2.57
2023-02-11T21:00:09.822Z,-2.12
2023-02-11T21:02:54.121Z,-1.90
2023-02-11T21:05:38.122Z,-1.84
2023-02-11T21:08:22.234Z,-2.18
2023-02-11T21:11:09.011Z,-1.89
2023-02-11T21:13:53.293Z,-1.95
2023-02-11T21:16:37.423Z,-2.04
2023-02-11T21:19:22.012Z,-2.16
2023-02-11T21:22:06.087Z,-2.42
2023-02-11T21:24:50.335Z,-1.98
2023-02-11T21:27:35.812Z,-2.03
2023-02-11T21:30:19.958Z,-2.31
2023-02-11T21:33:03.882Z,-1.60
2023-02-11T21:35:47.959Z,-1.71
2023-02-11T21:38:32.915Z,-1.84
2023-02-11T21:41:17.075Z,-1.95
2023-02-11T21:44:02.509Z,-1.65
2023-02-11T21:46:47.114Z,-2.17
2023-02-11T21:49:31.034Z,-2.10
2023-02-11T21:52:14.969Z,-1.82
2023-02-11T21:54:59.081Z,-2.08
2023-02-11T21:57:43.089Z,-1.54
2023-02-11T22:00:29.105Z,-1.61
2023-02-11T22:03:14.116Z,-1.80
2023-02-11T22:05:58.060Z,-1.80
2023-02-11T22:08:42.751Z,-1.76
2023-02-11T22:11:26.582Z,-1.75
2023-02-11T22:14:10.407Z,-1.65
2023-02-11T22:16:55.623Z,-1.31
2023-02-11T22:19:39.518Z,-1.69
2023-02-11T22:22:23.281Z,-1.66
2023-02-11T22:25:07.794Z,-1.55
2023-02-11T22:27:51.491Z,-1.31
2023-02-11T22:30:35.340Z,-1.21
2023-02-11T22:33:20.583Z,-1.21
2023-02-11T22:36:07.638Z,-1.25
2023-02-11T22:38:52.092Z,-1.07
2023-02-11T22:41:38.288Z,-1.06
2023-02-11T22:44:22.085Z,-1.13
2023-02-11T22:47:06.003Z,-0.84
2023-02-11T22:49:51.154Z,-0.75
2023-02-11T22:52:36.531Z,-0.76
2023-02-11T22:55:20.375Z,-1.05
2023-02-11T22:58:04.333Z,-1.29
2023-02-11T23:00:48.038Z,-1.09
2023-02-11T23:03:32.639Z,-0.78
2023-02-11T23:06:18.597Z,-0.90
2023-02-11T23:09:04.191Z,-0.80
2023-02-11T23:11:49.443Z,-0.66
2023-02-11T23:14:33.208Z,-0.86
2023-02-11T23:17:16.932Z,-0.94
2023-02-11T23:20:00.686Z,-0.64
2023-02-11T23:22:45.830Z,-0.55
2023-02-11T23:25:29.802Z,-0.48
2023-02-11T23:28:13.976Z,-0.45
2023-02-11T23:30:57.906Z,-0.61
2023-02-11T23:33:41.753Z,-0.78
2023-02-11T23:36:25.688Z,-0.40
2023-02-11T23:39:14.508Z,-0.21
2023-02-11T23:41:59.627Z,-0.54
2023-02-11T23:44:43.622Z,-0.38
2023-02-11T23:47:27.408Z,-0.54
2023-02-11T23:50:12.582Z,-0.71
2023-02-11T23:52:56.416Z,-0.45
2023-02-11T23:55:42.859Z,-0.28
2023-02-11T23:58:26.695Z,-0.35
